< Typhoon 197229 1972 Season Typhoon 197231 >
Typhoon 197230 (THERESE)
General InformationTrack Information on Google Maps || Disaster Info.ResourceGoogle EarthGE AnimationAtom FeedGeoJSON
Detalied Best Track (Time Zone = UTC)
Year Month Day Hour Lat. Long. Pressure (hPa) Wind (kt) Class Image Chart
1972 12 1 00 7.1 137.0 1008 0 2 -- Chart
1972 12 1 06 7.2 136.2 1004 0 2 -- Chart
1972 12 1 12 7.2 135.5 1000 0 9 -- Chart
1972 12 1 18 7.2 134.7 996 0 9 -- Chart
1972 12 2 00 7.3 133.8 992 0 9 -- Chart
1972 12 2 06 7.5 132.1 990 0 9 -- Chart
1972 12 2 12 7.7 130.5 990 0 9 -- Chart
1972 12 2 18 7.9 129.0 990 0 9 -- Chart
1972 12 3 00 8.1 127.7 992 0 9 -- Chart
1972 12 3 06 8.1 125.8 994 0 9 -- Chart
1972 12 3 12 9.0 123.0 996 0 9 -- Chart
1972 12 3 18 9.9 122.5 998 0 9 -- Chart
1972 12 4 00 10.2 122.2 1000 0 9 -- Chart
1972 12 4 06 10.7 121.1 1004 0 9 -- Chart
1972 12 4 12 11.1 120.8 1002 0 9 -- Chart
1972 12 4 18 11.5 120.5 1000 0 9 -- Chart
1972 12 5 00 12.3 119.8 992 0 9 -- Chart
1972 12 5 06 12.4 119.2 990 0 9 -- Chart
1972 12 5 12 12.4 119.2 990 0 9 -- Chart
1972 12 5 18 12.4 119.0 980 0 9 -- Chart
1972 12 6 00 12.5 118.9 980 0 9 -- Chart
1972 12 6 06 12.5 118.4 975 0 9 -- Chart
1972 12 6 12 12.5 118.0 970 0 9 -- Chart
1972 12 6 18 12.5 117.5 970 0 9 -- Chart
1972 12 7 00 12.7 117.1 965 0 9 -- Chart
1972 12 7 06 13.1 116.5 950 0 9 -- Chart
1972 12 7 12 13.5 116.0 945 0 9 -- Chart
1972 12 7 18 13.6 115.4 955 0 9 -- Chart
1972 12 8 00 13.8 115.0 960 0 9 -- Chart
1972 12 8 06 13.9 114.2 955 0 9 -- Chart
1972 12 8 12 14.0 113.5 965 0 9 -- Chart
1972 12 8 18 14.0 113.0 970 0 9 -- Chart
1972 12 9 00 14.0 112.2 970 0 9 -- Chart
1972 12 9 06 14.0 111.4 970 0 9 -- Chart
1972 12 9 12 14.0 110.8 970 0 9 -- Chart
1972 12 9 18 14.1 109.8 980 0 9 -- Chart
1972 12 10 00 14.1 109.0 990 0 9 -- Chart
1972 12 10 06 14.2 108.0 994 0 9 -- Chart
1972 12 10 12 14.1 106.9 1002 0 2 -- Chart
1972 12 10 18 14.1 106.0 1010 0 2 -- Chart
1972 12 11 00 14.0 105.0 1010 0 2 -- Chart
1972 12 11 06 14.0 103.8 1010 0 2 -- Chart
Japan Meteorological Agency Best Track Data | Correction Date : 1989-06-01
< Typhoon 197229 1972 Season Typhoon 197231 >

Help